sensor_id;sensor_type;location;lat;lon;timestamp;pressure;altitude;pressure_sealevel;temperature;humidity
20027;BME280;10174;42.688;23.344;2023-05-10T00:00:57;95582.03;;;9.53;100.00
20027;BME280;10174;42.688;23.344;2023-05-10T00:03:22;95587.53;;;9.63;100.00
20027;BME280;10174;42.688;23.344;2023-05-10T00:05:48;95596.28;;;9.75;100.00
20027;BME280;10174;42.688;23.344;2023-05-10T00:08:14;95593.03;;;9.73;100.00
20027;BME280;10174;42.688;23.344;2023-05-10T00:10:39;95516.31;;;9.28;100.00
20027;BME280;10174;42.688;23.344;2023-05-10T00:13:06;95569.34;;;9.65;100.00
20027;BME280;10174;42.688;23.344;2023-05-10T00:15:31;95562.84;;;9.61;100.00
20027;BME280;10174;42.688;23.344;2023-05-10T00:17:56;95582.50;;;9.67;100.00
20027;BME280;10174;42.688;23.344;2023-05-10T00:20:22;95495.63;;;9.01;100.00
20027;BME280;10174;42.688;23.344;2023-05-10T00:22:47;95572.91;;;9.49;100.00
20027;BME280;10174;42.688;23.344;2023-05-10T00:25:13;95580.44;;;9.52;100.00
20027;BME280;10174;42.688;23.344;2023-05-10T00:27:38;95561.78;;;9.40;100.00
20027;BME280;10174;42.688;23.344;2023-05-10T00:30:04;95572.44;;;9.57;100.00
20027;BME280;10174;42.688;23.344;2023-05-10T00:32:30;95571.00;;;9.49;100.00
20027;BME280;10174;42.688;23.344;2023-05-10T00:34:55;95578.19;;;9.43;100.00
20027;BME280;10174;42.688;23.344;2023-05-10T00:37:21;95555.34;;;9.19;100.00
20027;BME280;10174;42.688;23.344;2023-05-10T00:39:46;95571.75;;;9.44;100.00
20027;BME280;10174;42.688;23.344;2023-05-10T00:42:11;95578.19;;;9.43;100.00
20027;BME280;10174;42.688;23.344;2023-05-10T00:44:37;95577.13;;;9.44;100.00
20027;BME280;10174;42.688;23.344;2023-05-10T00:47:03;95565.72;;;9.32;100.00
20027;BME280;10174;42.688;23.344;2023-05-10T00:49:28;95565.41;;;9.29;100.00
20027;BME280;10174;42.688;23.344;2023-05-10T00:51:54;95563.91;;;9.38;100.00
20027;BME280;10174;42.688;23.344;2023-05-10T00:54:19;95557.38;;;9.29;100.00
20027;BME280;10174;42.688;23.344;2023-05-10T00:56:45;95562.97;;;9.27;100.00
20027;BME280;10174;42.688;23.344;2023-05-10T00:59:17;95568.34;;;9.27;100.00
20027;BME280;10174;42.688;23.344;2023-05-10T01:01:44;95568.44;;;9.37;100.00
20027;BME280;10174;42.688;23.344;2023-05-10T01:04:10;95569.88;;;9.23;100.00
20027;BME280;10174;42.688;23.344;2023-05-10T01:06:37;95535.34;;;9.04;100.00
20027;BME280;10174;42.688;23.344;2023-05-10T01:09:03;95542.38;;;9.11;100.00
20027;BME280;10174;42.688;23.344;2023-05-10T01:11:28;95559.97;;;9.23;100.00
20027;BME280;10174;42.688;23.344;2023-05-10T01:13:57;95531.28;;;9.02;100.00
20027;BME280;10174;42.688;23.344;2023-05-10T01:16:23;95528.91;;;9.05;100.00
20027;BME280;10174;42.688;23.344;2023-05-10T01:18:51;95559.72;;;9.25;100.00
20027;BME280;10174;42.688;23.344;2023-05-10T01:21:32;95534.09;;;9.12;100.00
20027;BME280;10174;42.688;23.344;2023-05-10T01:37:39;95541.94;;;8.97;100.00
20027;BME280;10174;42.688;23.344;2023-05-10T01:40:27;95471.38;;;8.52;100.00
20027;BME280;10174;42.688;23.344;2023-05-10T01:43:00;95530.38;;;8.96;100.00
20027;BME280;10174;42.688;23.344;2023-05-10T01:45:32;95533.16;;;9.01;100.00
20027;BME280;10174;42.688;23.344;2023-05-10T01:48:10;95535.59;;;9.03;100.00
20027;BME280;10174;42.688;23.344;2023-05-10T01:50:39;95538.50;;;9.01;100.00
20027;BME280;10174;42.688;23.344;2023-05-10T01:53:08;95521.16;;;8.87;100.00
20027;BME280;10174;42.688;23.344;2023-05-10T01:55:41;95541.09;;;8.96;100.00
20027;BME280;10174;42.688;23.344;2023-05-10T01:58:14;95536.41;;;8.86;100.00
20027;BME280;10174;42.688;23.344;2023-05-10T02:00:43;95545.34;;;8.92;100.00
20027;BME280;10174;42.688;23.344;2023-05-10T02:03:10;95533.00;;;8.91;100.00
20027;BME280;10174;42.688;23.344;2023-05-10T02:05:36;95516.78;;;8.81;100.00
20027;BME280;10174;42.688;23.344;2023-05-10T02:08:05;95547.34;;;9.02;100.00
20027;BME280;10174;42.688;23.344;2023-05-10T02:10:33;95554.09;;;9.04;100.00
20027;BME280;10174;42.688;23.344;2023-05-10T02:12:59;95548.16;;;9.02;100.00
20027;BME280;10174;42.688;23.344;2023-05-10T02:15:26;95548.66;;;8.99;100.00
20027;BME280;10174;42.688;23.344;2023-05-10T02:17:54;95456.03;;;8.30;100.00
20027;BME280;10174;42.688;23.344;2023-05-10T02:20:20;95444.47;;;8.25;100.00
20027;BME280;10174;42.688;23.344;2023-05-10T02:22:49;95536.13;;;8.83;100.00
20027;BME280;10174;42.688;23.344;2023-05-10T02:25:18;95552.75;;;8.85;100.00
20027;BME280;10174;42.688;23.344;2023-05-10T02:27:44;95457.59;;;8.26;99.78
20027;BME280;10174;42.688;23.344;2023-05-10T02:30:12;95557.38;;;8.72;99.74
20027;BME280;10174;42.688;23.344;2023-05-10T02:32:38;95508.25;;;8.45;99.83
20027;BME280;10174;42.688;23.344;2023-05-10T02:35:05;95555.44;;;8.68;97.39
20027;BME280;10174;42.688;23.344;2023-05-10T02:37:31;95557.66;;;8.54;97.45
20027;BME280;10174;42.688;23.344;2023-05-10T02:39:58;95558.50;;;8.60;99.92
20027;BME280;10174;42.688;23.344;2023-05-10T02:42:26;95558.38;;;8.49;99.48
20027;BME280;10174;42.688;23.344;2023-05-10T02:44:55;95543.03;;;8.45;99.89
20027;BME280;10174;42.688;23.344;2023-05-10T02:47:22;95513.03;;;8.14;97.81
20027;BME280;10174;42.688;23.344;2023-05-10T02:49:47;95545.81;;;8.21;96.68
20027;BME280;10174;42.688;23.344;2023-05-10T02:52:16;95545.59;;;8.23;96.87
20027;BME280;10174;42.688;23.344;2023-05-10T02:54:45;95542.91;;;8.23;98.50
20027;BME280;10174;42.688;23.344;2023-05-10T02:57:16;95517.59;;;8.13;98.44
20027;BME280;10174;42.688;23.344;2023-05-10T02:59:45;95543.06;;;8.16;98.75
20027;BME280;10174;42.688;23.344;2023-05-10T03:02:14;95529.09;;;7.97;97.92
20027;BME280;10174;42.688;23.344;2023-05-10T03:04:39;95544.03;;;8.10;99.38
20027;BME280;10174;42.688;23.344;2023-05-10T03:07:04;95546.97;;;8.08;98.19
20027;BME280;10174;42.688;23.344;2023-05-10T03:09:31;95548.25;;;8.06;97.45
20027;BME280;10174;42.688;23.344;2023-05-10T03:12:22;95548.91;;;8.13;96.86
20027;BME280;10174;42.688;23.344;2023-05-10T03:17:45;95547.94;;;8.02;95.35
20027;BME280;10174;42.688;23.344;2023-05-10T03:20:22;95552.94;;;7.98;96.33
20027;BME280;10174;42.688;23.344;2023-05-10T03:25:39;95428.75;;;7.31;93.74
20027;BME280;10174;42.688;23.344;2023-05-10T03:28:05;95507.78;;;7.85;93.80
20027;BME280;10174;42.688;23.344;2023-05-10T03:30:31;95540.47;;;8.04;95.33
20027;BME280;10174;42.688;23.344;2023-05-10T03:32:57;95561.38;;;8.07;94.18
20027;BME280;10174;42.688;23.344;2023-05-10T03:35:23;95551.47;;;8.08;95.56
20027;BME280;10174;42.688;23.344;2023-05-10T03:37:48;95555.56;;;8.10;95.92
20027;BME280;10174;42.688;23.344;2023-05-10T03:40:14;95428.25;;;7.35;95.23
20027;BME280;10174;42.688;23.344;2023-05-10T03:42:40;95531.22;;;8.12;91.81
20027;BME280;10174;42.688;23.344;2023-05-10T03:45:06;95560.91;;;8.27;92.37
20027;BME280;10174;42.688;23.344;2023-05-10T03:47:32;95558.47;;;8.26;92.23
20027;BME280;10174;42.688;23.344;2023-05-10T03:49:57;95559.56;;;8.25;91.70
20027;BME280;10174;42.688;23.344;2023-05-10T03:52:23;95569.34;;;8.19;91.43
20027;BME280;10174;42.688;23.344;2023-05-10T03:54:48;95541.25;;;8.05;90.60
20027;BME280;10174;42.688;23.344;2023-05-10T03:57:13;95458.50;;;7.52;92.06
20027;BME280;10174;42.688;23.344;2023-05-10T03:59:39;95460.44;;;7.40;92.10
20027;BME280;10174;42.688;23.344;2023-05-10T04:02:04;95548.25;;;8.06;92.44
20027;BME280;10174;42.688;23.344;2023-05-10T04:04:30;95583.47;;;8.14;91.87
20027;BME280;10174;42.688;23.344;2023-05-10T04:06:55;95579.75;;;8.15;92.57
20027;BME280;10174;42.688;23.344;2023-05-10T04:09:20;95566.56;;;8.14;91.34
20027;BME280;10174;42.688;23.344;2023-05-10T04:11:46;95551.97;;;8.05;91.96
20027;BME280;10174;42.688;23.344;2023-05-10T04:14:11;95530.41;;;7.94;90.63
20027;BME280;10174;42.688;23.344;2023-05-10T04:16:36;95566.75;;;8.24;90.13
20027;BME280;10174;42.688;23.344;2023-05-10T04:19:02;95578.63;;;8.28;90.36
20027;BME280;10174;42.688;23.344;2023-05-10T04:21:28;95545.50;;;8.00;88.29
20027;BME280;10174;42.688;23.344;2023-05-10T04:23:53;95565.22;;;8.28;90.80
20027;BME280;10174;42.688;23.344;2023-05-10T04:26:18;95562.22;;;8.25;87.19
20027;BME280;10174;42.688;23.344;2023-05-10T04:28:44;95583.47;;;8.31;88.89
20027;BME280;10174;42.688;23.344;2023-05-10T04:31:10;95563.44;;;8.17;90.25
20027;BME280;10174;42.688;23.344;2023-05-10T04:33:36;95580.13;;;8.24;89.12
20027;BME280;10174;42.688;23.344;2023-05-10T04:36:02;95588.41;;;8.23;89.29
20027;BME280;10174;42.688;23.344;2023-05-10T04:38:28;95548.16;;;8.00;91.11
20027;BME280;10174;42.688;23.344;2023-05-10T04:40:53;95571.31;;;8.24;90.40
20027;BME280;10174;42.688;23.344;2023-05-10T04:43:19;95569.25;;;8.14;90.79
20027;BME280;10174;42.688;23.344;2023-05-10T04:45:45;95587.88;;;8.37;88.20
20027;BME280;10174;42.688;23.344;2023-05-10T04:48:10;95585.75;;;8.39;88.71
20027;BME280;10174;42.688;23.344;2023-05-10T04:50:36;95591.63;;;8.53;87.73
20027;BME280;10174;42.688;23.344;2023-05-10T04:53:01;95571.31;;;8.41;87.99
20027;BME280;10174;42.688;23.344;2023-05-10T04:55:27;95545.19;;;8.31;87.90
20027;BME280;10174;42.688;23.344;2023-05-10T04:57:53;95567.34;;;8.43;87.83
20027;BME280;10174;42.688;23.344;2023-05-10T05:00:20;95589.28;;;8.57;88.33
20027;BME280;10174;42.688;23.344;2023-05-10T05:02:45;95584.50;;;8.59;86.73
20027;BME280;10174;42.688;23.344;2023-05-10T05:05:12;95569.81;;;8.45;88.72
20027;BME280;10174;42.688;23.344;2023-05-10T05:07:37;95586.38;;;8.59;87.76
20027;BME280;10174;42.688;23.344;2023-05-10T05:10:05;95570.44;;;8.52;87.92
20027;BME280;10174;42.688;23.344;2023-05-10T05:12:30;95572.81;;;8.48;88.61
20027;BME280;10174;42.688;23.344;2023-05-10T05:14:56;95588.50;;;8.73;89.49
20027;BME280;10174;42.688;23.344;2023-05-10T05:17:21;95579.78;;;8.66;87.06
20027;BME280;10174;42.688;23.344;2023-05-10T05:19:47;95596.78;;;8.72;87.12
20027;BME280;10174;42.688;23.344;2023-05-10T05:22:12;95591.28;;;8.84;86.48
20027;BME280;10174;42.688;23.344;2023-05-10T05:24:37;95485.91;;;8.22;84.33
20027;BME280;10174;42.688;23.344;2023-05-10T05:27:03;95586.44;;;8.81;85.28
20027;BME280;10174;42.688;23.344;2023-05-10T05:29:29;95549.78;;;8.64;86.99
20027;BME280;10174;42.688;23.344;2023-05-10T05:31:54;95600.69;;;9.03;86.43
20027;BME280;10174;42.688;23.344;2023-05-10T05:34:20;95603.72;;;8.90;87.77
20027;BME280;10174;42.688;23.344;2023-05-10T05:36:47;95598.56;;;9.05;86.29
20027;BME280;10174;42.688;23.344;2023-05-10T05:39:13;95605.16;;;9.15;86.10
20027;BME280;10174;42.688;23.344;2023-05-10T05:41:38;95578.00;;;8.89;86.77
20027;BME280;10174;42.688;23.344;2023-05-10T05:44:03;95600.84;;;9.14;85.28
20027;BME280;10174;42.688;23.344;2023-05-10T05:46:29;95591.53;;;9.16;82.63
20027;BME280;10174;42.688;23.344;2023-05-10T05:48:54;95608.19;;;9.01;85.55
20027;BME280;10174;42.688;23.344;2023-05-10T05:51:20;95546.44;;;8.57;87.34
20027;BME280;10174;42.688;23.344;2023-05-10T05:53:45;95540.66;;;8.65;82.23
20027;BME280;10174;42.688;23.344;2023-05-10T05:56:11;95615.78;;;9.09;83.46
20027;BME280;10174;42.688;23.344;2023-05-10T05:58:36;95510.47;;;8.36;86.34
20027;BME280;10174;42.688;23.344;2023-05-10T06:01:01;95601.03;;;8.90;89.42
20027;BME280;10174;42.688;23.344;2023-05-10T06:03:27;95609.97;;;8.96;88.66
20027;BME280;10174;42.688;23.344;2023-05-10T06:05:52;95616.22;;;9.01;90.70
20027;BME280;10174;42.688;23.344;2023-05-10T06:08:17;95551.31;;;8.60;89.70
20027;BME280;10174;42.688;23.344;2023-05-10T06:10:43;95618.41;;;9.04;88.39
20027;BME280;10174;42.688;23.344;2023-05-10T06:13:09;95625.88;;;9.02;90.31
20027;BME280;10174;42.688;23.344;2023-05-10T06:15:35;95596.09;;;8.82;88.61
20027;BME280;10174;42.688;23.344;2023-05-10T06:18:00;95633.03;;;8.97;88.35
20027;BME280;10174;42.688;23.344;2023-05-10T06:20:26;95626.28;;;9.11;87.19
20027;BME280;10174;42.688;23.344;2023-05-10T06:22:51;95621.91;;;9.05;85.79
20027;BME280;10174;42.688;23.344;2023-05-10T06:25:16;95618.47;;;9.09;85.59
20027;BME280;10174;42.688;23.344;2023-05-10T06:27:43;95637.41;;;9.03;86.81
20027;BME280;10174;42.688;23.344;2023-05-10T06:30:09;95622.56;;;8.95;87.46
20027;BME280;10174;42.688;23.344;2023-05-10T06:32:35;95580.34;;;8.68;87.31
20027;BME280;10174;42.688;23.344;2023-05-10T06:35:00;95541.66;;;8.59;86.03
20027;BME280;10174;42.688;23.344;2023-05-10T06:37:26;95631.22;;;9.02;86.38
20027;BME280;10174;42.688;23.344;2023-05-10T06:39:51;95639.53;;;9.18;85.96
20027;BME280;10174;42.688;23.344;2023-05-10T06:42:17;95614.66;;;9.05;87.47
20027;BME280;10174;42.688;23.344;2023-05-10T06:44:42;95593.81;;;9.07;82.60
20027;BME280;10174;42.688;23.344;2023-05-10T06:47:08;95537.69;;;8.62;85.27
20027;BME280;10174;42.688;23.344;2023-05-10T06:49:34;95609.44;;;9.16;84.85
20027;BME280;10174;42.688;23.344;2023-05-10T06:51:59;95606.28;;;9.19;84.69
20027;BME280;10174;42.688;23.344;2023-05-10T06:54:24;95604.94;;;9.38;80.34
20027;BME280;10174;42.688;23.344;2023-05-10T06:56:50;95476.81;;;8.57;80.52
20027;BME280;10174;42.688;23.344;2023-05-10T06:59:15;95626.03;;;9.52;80.77
20027;BME280;10174;42.688;23.344;2023-05-10T07:01:42;95558.97;;;9.07;80.84
20027;BME280;10174;42.688;23.344;2023-05-10T07:04:08;95579.09;;;9.10;81.27
20027;BME280;10174;42.688;23.344;2023-05-10T07:06:33;95634.50;;;9.43;81.94
20027;BME280;10174;42.688;23.344;2023-05-10T07:08:59;95614.78;;;9.33;80.11
20027;BME280;10174;42.688;23.344;2023-05-10T07:11:25;95632.44;;;9.51;80.78
20027;BME280;10174;42.688;23.344;2023-05-10T07:13:50;95624.69;;;9.32;82.33
20027;BME280;10174;42.688;23.344;2023-05-10T07:16:16;95641.88;;;9.53;79.01
20027;BME280;10174;42.688;23.344;2023-05-10T07:18:41;95645.13;;;9.55;81.17
20027;BME280;10174;42.688;23.344;2023-05-10T07:21:07;95623.03;;;9.48;81.09
20027;BME280;10174;42.688;23.344;2023-05-10T07:23:32;95649.47;;;9.61;80.18
20027;BME280;10174;42.688;23.344;2023-05-10T07:25:58;95641.31;;;9.73;80.11
20027;BME280;10174;42.688;23.344;2023-05-10T07:28:23;95636.75;;;9.74;80.15
20027;BME280;10174;42.688;23.344;2023-05-10T07:30:51;95620.81;;;9.62;78.88
20027;BME280;10174;42.688;23.344;2023-05-10T07:33:17;95652.69;;;9.80;79.71
20027;BME280;10174;42.688;23.344;2023-05-10T07:35:43;95636.16;;;9.67;78.80
20027;BME280;10174;42.688;23.344;2023-05-10T07:38:08;95632.59;;;9.61;78.90
20027;BME280;10174;42.688;23.344;2023-05-10T07:40:36;95652.19;;;9.84;74.60
20027;BME280;10174;42.688;23.344;2023-05-10T07:43:01;95657.38;;;9.90;75.27
20027;BME280;10174;42.688;23.344;2023-05-10T07:45:27;95653.63;;;9.91;75.07
20027;BME280;10174;42.688;23.344;2023-05-10T07:47:53;95649.56;;;9.89;78.24
20027;BME280;10174;42.688;23.344;2023-05-10T07:50:18;95534.97;;;9.18;76.50
20027;BME280;10174;42.688;23.344;2023-05-10T07:52:44;95656.72;;;9.83;78.87
20027;BME280;10174;42.688;23.344;2023-05-10T07:55:09;95655.09;;;10.04;77.20
20027;BME280;10174;42.688;23.344;2023-05-10T07:57:35;95661.53;;;10.03;78.22
20027;BME280;10174;42.688;23.344;2023-05-10T08:00:01;95646.94;;;9.94;75.71
20027;BME280;10174;42.688;23.344;2023-05-10T08:02:26;95662.16;;;10.10;76.22
20027;BME280;10174;42.688;23.344;2023-05-10T08:04:51;95661.97;;;9.95;77.59
20027;BME280;10174;42.688;23.344;2023-05-10T08:07:17;95634.97;;;9.79;78.50
20027;BME280;10174;42.688;23.344;2023-05-10T08:09:43;95658.59;;;10.05;77.28
20027;BME280;10174;42.688;23.344;2023-05-10T08:12:08;95659.44;;;10.32;74.94
20027;BME280;10174;42.688;23.344;2023-05-10T08:14:34;95622.97;;;10.09;75.58
20027;BME280;10174;42.688;23.344;2023-05-10T08:17:01;95651.56;;;10.26;75.60
20027;BME280;10174;42.688;23.344;2023-05-10T08:19:27;95664.94;;;10.43;75.86
20027;BME280;10174;42.688;23.344;2023-05-10T08:21:52;95652.59;;;10.69;74.24
20027;BME280;10174;42.688;23.344;2023-05-10T08:24:18;95663.47;;;10.57;74.27
20027;BME280;10174;42.688;23.344;2023-05-10T08:26:44;95641.22;;;10.62;73.52
20027;BME280;10174;42.688;23.344;2023-05-10T08:29:09;95663.53;;;10.62;73.21
20027;BME280;10174;42.688;23.344;2023-05-10T08:31:35;95659.22;;;10.61;75.88
20027;BME280;10174;42.688;23.344;2023-05-10T08:34:00;95571.44;;;10.12;74.50
20027;BME280;10174;42.688;23.344;2023-05-10T08:36:25;95665.94;;;10.64;75.98
20027;BME280;10174;42.688;23.344;2023-05-10T08:38:51;95660.69;;;10.74;77.22
20027;BME280;10174;42.688;23.344;2023-05-10T08:41:19;95663.34;;;10.69;80.57
20027;BME280;10174;42.688;23.344;2023-05-10T08:43:46;95659.56;;;10.70;77.70
20027;BME280;10174;42.688;23.344;2023-05-10T08:46:15;95661.91;;;10.61;80.61
20027;BME280;10174;42.688;23.344;2023-05-10T08:48:46;95664.94;;;10.70;79.22
20027;BME280;10174;42.688;23.344;2023-05-10T08:51:18;95674.22;;;10.84;77.21
20027;BME280;10174;42.688;23.344;2023-05-10T08:53:45;95645.41;;;10.80;79.80
20027;BME280;10174;42.688;23.344;2023-05-10T08:56:11;95661.44;;;11.02;78.98
20027;BME280;10174;42.688;23.344;2023-05-10T08:58:38;95651.63;;;10.85;78.32
20027;BME280;10174;42.688;23.344;2023-05-10T09:01:04;95543.41;;;10.30;77.34
20027;BME280;10174;42.688;23.344;2023-05-10T09:03:30;95666.31;;;11.05;80.86
20027;BME280;10174;42.688;23.344;2023-05-10T09:05:56;95666.31;;;11.05;77.93
20027;BME280;10174;42.688;23.344;2023-05-10T09:08:23;95667.00;;;11.22;76.96
20027;BME280;10174;42.688;23.344;2023-05-10T09:10:51;95663.72;;;11.20;77.94
20027;BME280;10174;42.688;23.344;2023-05-10T09:13:17;95565.25;;;10.72;79.11
20027;BME280;10174;42.688;23.344;2023-05-10T09:15:44;95648.72;;;11.30;77.97
20027;BME280;10174;42.688;23.344;2023-05-10T09:18:09;95652.00;;;11.37;78.87
20027;BME280;10174;42.688;23.344;2023-05-10T09:20:35;95652.44;;;11.23;77.24
20027;BME280;10174;42.688;23.344;2023-05-10T09:23:01;95633.69;;;11.29;76.31
20027;BME280;10174;42.688;23.344;2023-05-10T09:25:26;95656.88;;;11.40;76.49
20027;BME280;10174;42.688;23.344;2023-05-10T09:27:52;95639.38;;;11.00;75.81
20027;BME280;10174;42.688;23.344;2023-05-10T09:30:24;95658.34;;;11.20;74.94
20027;BME280;10174;42.688;23.344;2023-05-10T09:32:50;95659.31;;;11.04;77.82
20027;BME280;10174;42.688;23.344;2023-05-10T09:35:18;95645.31;;;11.02;78.50
20027;BME280;10174;42.688;23.344;2023-05-10T09:37:49;95653.88;;;10.99;78.91
20027;BME280;10174;42.688;23.344;2023-05-10T09:40:19;95645.78;;;10.94;78.78
20027;BME280;10174;42.688;23.344;2023-05-10T09:45:28;95645.81;;;10.99;77.75
20027;BME280;10174;42.688;23.344;2023-05-10T09:47:54;95637.88;;;11.14;74.26
20027;BME280;10174;42.688;23.344;2023-05-10T09:50:20;95642.88;;;11.38;73.03
20027;BME280;10174;42.688;23.344;2023-05-10T09:52:56;95650.38;;;11.36;74.00
20027;BME280;10174;42.688;23.344;2023-05-10T09:58:01;95646.88;;;11.35;73.73
20027;BME280;10174;42.688;23.344;2023-05-10T10:00:27;95518.44;;;10.62;74.53
20027;BME280;10174;42.688;23.344;2023-05-10T10:02:58;95639.94;;;11.45;71.75
20027;BME280;10174;42.688;23.344;2023-05-10T10:05:34;95636.78;;;11.58;71.94
20027;BME280;10174;42.688;23.344;2023-05-10T10:08:03;95632.53;;;11.62;71.72
20027;BME280;10174;42.688;23.344;2023-05-10T10:10:30;95636.72;;;11.48;72.35
20027;BME280;10174;42.688;23.344;2023-05-10T10:12:56;95608.13;;;11.31;73.98
20027;BME280;10174;42.688;23.344;2023-05-10T10:15:22;95518.84;;;10.81;74.26
20027;BME280;10174;42.688;23.344;2023-05-10T10:17:49;95619.06;;;11.67;71.92
20027;BME280;10174;42.688;23.344;2023-05-10T10:20:15;95617.81;;;11.85;72.20
20027;BME280;10174;42.688;23.344;2023-05-10T10:22:40;95589.22;;;11.69;72.35
20027;BME280;10174;42.688;23.344;2023-05-10T10:25:07;95610.75;;;11.74;72.82
20027;BME280;10174;42.688;23.344;2023-05-10T10:30:43;95623.19;;;11.85;71.11
20027;BME280;10174;42.688;23.344;2023-05-10T10:33:33;95616.00;;;12.01;70.37
20027;BME280;10174;42.688;23.344;2023-05-10T10:36:02;95613.06;;;12.08;69.83
20027;BME280;10174;42.688;23.344;2023-05-10T10:49:24;95608.84;;;12.53;69.38
20027;BME280;10174;42.688;23.344;2023-05-10T10:55:08;95618.03;;;12.83;68.10
20027;BME280;10174;42.688;23.344;2023-05-10T11:03:04;95627.16;;;12.56;68.80
20027;BME280;10174;42.688;23.344;2023-05-10T11:05:41;95627.19;;;12.61;70.19
20027;BME280;10174;42.688;23.344;2023-05-10T11:08:25;95625.56;;;12.71;69.33
20027;BME280;10174;42.688;23.344;2023-05-10T11:16:14;95615.88;;;12.64;69.03
20027;BME280;10174;42.688;23.344;2023-05-10T11:18:40;95611.00;;;12.82;68.38
20027;BME280;10174;42.688;23.344;2023-05-10T11:21:09;95622.91;;;12.96;66.91
20027;BME280;10174;42.688;23.344;2023-05-10T11:23:50;95618.00;;;13.19;64.71
20027;BME280;10174;42.688;23.344;2023-05-10T11:26:16;95598.31;;;13.08;65.55
20027;BME280;10174;42.688;23.344;2023-05-10T11:28:46;95625.81;;;13.26;65.79
20027;BME280;10174;42.688;23.344;2023-05-10T11:31:16;95520.44;;;12.65;64.36
20027;BME280;10174;42.688;23.344;2023-05-10T11:33:46;95551.69;;;12.82;64.26
20027;BME280;10174;42.688;23.344;2023-05-10T11:36:15;95628.81;;;13.04;65.09
20027;BME280;10174;42.688;23.344;2023-05-10T11:38:40;95598.06;;;12.94;64.61
20027;BME280;10174;42.688;23.344;2023-05-10T11:41:10;95595.66;;;12.77;66.70
20027;BME280;10174;42.688;23.344;2023-05-10T11:43:40;95548.47;;;12.39;67.10
20027;BME280;10174;42.688;23.344;2023-05-10T11:46:11;95604.00;;;12.71;67.97
20027;BME280;10174;42.688;23.344;2023-05-10T11:48:38;95626.91;;;12.99;66.11
20027;BME280;10174;42.688;23.344;2023-05-10T11:51:04;95633.94;;;12.69;68.50
20027;BME280;10174;42.688;23.344;2023-05-10T11:53:31;95623.94;;;12.90;68.44
20027;BME280;10174;42.688;23.344;2023-05-10T11:56:08;95621.00;;;12.81;67.96
20027;BME280;10174;42.688;23.344;2023-05-10T11:58:34;95602.94;;;12.77;70.18
20027;BME280;10174;42.688;23.344;2023-05-10T12:01:01;95614.25;;;12.74;69.18
20027;BME280;10174;42.688;23.344;2023-05-10T12:03:27;95606.69;;;12.91;67.12
20027;BME280;10174;42.688;23.344;2023-05-10T12:05:57;95606.72;;;12.86;66.81
20027;BME280;10174;42.688;23.344;2023-05-10T12:08:24;95615.88;;;12.85;67.56
20027;BME280;10174;42.688;23.344;2023-05-10T12:10:50;95609.94;;;12.83;67.20
20027;BME280;10174;42.688;23.344;2023-05-10T12:13:17;95612.09;;;12.91;68.35
20027;BME280;10174;42.688;23.344;2023-05-10T12:15:43;95604.00;;;13.01;66.97
20027;BME280;10174;42.688;23.344;2023-05-10T12:18:10;95613.72;;;12.92;67.17
20027;BME280;10174;42.688;23.344;2023-05-10T12:20:36;95599.69;;;12.75;67.07
20027;BME280;10174;42.688;23.344;2023-05-10T12:23:02;95487.03;;;12.00;67.84
20027;BME280;10174;42.688;23.344;2023-05-10T12:25:33;95607.78;;;12.70;68.37
20027;BME280;10174;42.688;23.344;2023-05-10T12:27:59;95601.06;;;12.72;69.33
20027;BME280;10174;42.688;23.344;2023-05-10T12:30:29;95602.41;;;12.80;68.54
20027;BME280;10174;42.688;23.344;2023-05-10T12:33:10;95580.28;;;12.52;69.17
20027;BME280;10174;42.688;23.344;2023-05-10T12:35:52;95598.63;;;12.71;67.80
20027;BME280;10174;42.688;23.344;2023-05-10T12:38:29;95594.84;;;12.61;68.50
20027;BME280;10174;42.688;23.344;2023-05-10T12:40:57;95589.97;;;12.53;68.24
20027;BME280;10174;42.688;23.344;2023-05-10T12:43:22;95554.66;;;12.39;66.83
20027;BME280;10174;42.688;23.344;2023-05-10T12:45:48;95582.44;;;12.65;68.25
20027;BME280;10174;42.688;23.344;2023-05-10T12:48:14;95584.59;;;12.63;68.32
20027;BME280;10174;42.688;23.344;2023-05-10T12:50:40;95558.16;;;12.65;66.05
20027;BME280;10174;42.688;23.344;2023-05-10T12:53:05;95499.97;;;12.34;67.04
20027;BME280;10174;42.688;23.344;2023-05-10T12:55:31;95524.22;;;12.59;67.17
20027;BME280;10174;42.688;23.344;2023-05-10T12:57:56;95578.13;;;12.75;67.45
20027;BME280;10174;42.688;23.344;2023-05-10T13:00:22;95574.88;;;12.73;68.20
20027;BME280;10174;42.688;23.344;2023-05-10T13:02:47;95573.81;;;12.58;68.04
20027;BME280;10174;42.688;23.344;2023-05-10T13:05:13;95574.34;;;12.86;65.14
20027;BME280;10174;42.688;23.344;2023-05-10T13:07:38;95574.34;;;12.86;65.35
20027;BME280;10174;42.688;23.344;2023-05-10T13:10:05;95555.22;;;12.57;66.80
20027;BME280;10174;42.688;23.344;2023-05-10T13:12:31;95474.91;;;12.23;66.36
20027;BME280;10174;42.688;23.344;2023-05-10T13:14:56;95438.50;;;11.69;68.60
20027;BME280;10174;42.688;23.344;2023-05-10T13:17:22;95544.16;;;12.22;69.05
20027;BME280;10174;42.688;23.344;2023-05-10T13:19:48;95526.91;;;12.18;68.99
20027;BME280;10174;42.688;23.344;2023-05-10T13:22:13;95557.63;;;12.33;69.77
20027;BME280;10174;42.688;23.344;2023-05-10T13:24:38;95561.97;;;12.64;67.13
20027;BME280;10174;42.688;23.344;2023-05-10T13:27:04;95529.09;;;12.26;69.36
20027;BME280;10174;42.688;23.344;2023-05-10T13:29:30;95555.47;;;12.40;70.23
20027;BME280;10174;42.688;23.344;2023-05-10T13:31:55;95556.03;;;12.47;68.67
20027;BME280;10174;42.688;23.344;2023-05-10T13:34:21;95471.09;;;11.83;69.12
20027;BME280;10174;42.688;23.344;2023-05-10T13:36:47;95543.63;;;12.25;71.23
20027;BME280;10174;42.688;23.344;2023-05-10T13:39:13;95544.41;;;12.26;70.67
20027;BME280;10174;42.688;23.344;2023-05-10T13:41:38;95539.28;;;12.24;69.66
20027;BME280;10174;42.688;23.344;2023-05-10T13:44:04;95438.53;;;11.79;69.28
20027;BME280;10174;42.688;23.344;2023-05-10T13:46:29;95421.81;;;11.72;68.75